createdAt,value
2022-11-26T00:00:25.893Z,34.87
2022-11-26T00:02:54.242Z,37.53
2022-11-26T00:05:22.199Z,32.13
2022-11-26T00:07:55.638Z,25.97
2022-11-26T00:10:24.575Z,27.30
2022-11-26T00:12:51.760Z,28.23
2022-11-26T00:15:23.536Z,33.73
2022-11-26T00:17:51.322Z,36.20
2022-11-26T00:20:19.196Z,42.73
2022-11-26T00:22:50.739Z,35.17
2022-11-26T00:25:22.469Z,29.30
2022-11-26T00:27:50.393Z,33.43
2022-11-26T00:30:19.256Z,29.03
2022-11-26T00:32:46.403Z,31.50
2022-11-26T00:35:13.848Z,33.57
2022-11-26T00:37:43.176Z,32.80
2022-11-26T00:40:16.735Z,34.37
2022-11-26T00:42:43.847Z,38.93
2022-11-26T00:45:31.484Z,39.27
2022-11-26T00:47:58.740Z,42.63
2022-11-26T00:50:27.181Z,43.10
2022-11-26T00:52:55.824Z,40.80
2022-11-26T00:55:32.058Z,38.17
2022-11-26T00:57:59.352Z,40.37
2022-11-26T01:00:27.916Z,43.20
2022-11-26T01:02:55.339Z,39.70
2022-11-26T01:05:23.723Z,41.83
2022-11-26T01:07:51.513Z,37.23
2022-11-26T01:10:18.800Z,39.13
2022-11-26T01:12:46.016Z,33.47
2022-11-26T01:15:13.465Z,38.13
2022-11-26T01:17:40.847Z,35.70
2022-11-26T01:20:15.478Z,42.00
2022-11-26T01:22:42.600Z,33.43
2022-11-26T01:25:09.699Z,33.07
2022-11-26T01:27:36.807Z,33.37
2022-11-26T01:30:04.124Z,32.93
2022-11-26T01:32:31.228Z,32.77
2022-11-26T01:34:58.342Z,38.47
2022-11-26T01:37:25.494Z,27.07
2022-11-26T01:39:52.649Z,34.83
2022-11-26T01:42:26.030Z,28.67
2022-11-26T01:44:53.261Z,31.73
2022-11-26T01:47:20.839Z,32.67
2022-11-26T01:50:06.558Z,37.50
2022-11-26T01:52:33.714Z,29.63
2022-11-26T01:55:00.843Z,32.77
2022-11-26T01:57:29.506Z,29.17
2022-11-26T02:00:01.289Z,38.00
2022-11-26T02:02:29.243Z,37.47
2022-11-26T02:05:12.237Z,30.23
2022-11-26T02:07:39.840Z,34.33
2022-11-26T02:10:07.399Z,27.17
2022-11-26T02:12:34.667Z,37.73
2022-11-26T02:15:01.805Z,32.27
2022-11-26T02:17:35.054Z,28.80
2022-11-26T02:20:31.710Z,34.97
2022-11-26T02:22:58.859Z,25.67
2022-11-26T02:25:37.502Z,33.07
2022-11-26T02:28:16.741Z,31.67
2022-11-26T02:30:49.174Z,34.33
2022-11-26T02:33:16.246Z,28.00
2022-11-26T02:35:46.650Z,22.67
2022-11-26T02:38:20.440Z,27.43
2022-11-26T02:40:47.644Z,32.73
2022-11-26T02:43:16.238Z,32.67
2022-11-26T02:45:44.695Z,30.13
2022-11-26T02:48:13.959Z,26.43
2022-11-26T02:50:47.598Z,34.80
2022-11-26T02:53:16.448Z,37.67
2022-11-26T02:55:45.587Z,36.57
2022-11-26T02:58:12.774Z,33.37
2022-11-26T03:00:42.374Z,28.13
2022-11-26T03:03:11.979Z,30.70
2022-11-26T03:05:41.357Z,32.07
2022-11-26T03:08:08.760Z,24.70
2022-11-26T03:10:35.898Z,28.67
2022-11-26T03:13:03.015Z,41.20
2022-11-26T03:15:30.105Z,32.13
2022-11-26T03:17:57.221Z,32.17
2022-11-26T03:20:24.493Z,27.37
2022-11-26T03:22:51.623Z,29.50
2022-11-26T03:25:18.869Z,28.17
2022-11-26T03:27:45.984Z,32.07
2022-11-26T03:30:13.280Z,31.63
2022-11-26T03:32:40.359Z,30.27
2022-11-26T03:35:07.675Z,28.80
2022-11-26T03:37:34.775Z,27.77
2022-11-26T03:40:01.920Z,29.43
2022-11-26T03:42:29.051Z,29.87
2022-11-26T03:44:56.516Z,29.37
2022-11-26T03:47:23.660Z,34.87
2022-11-26T03:49:50.766Z,26.37
2022-11-26T03:52:17.975Z,28.97
2022-11-26T03:54:45.105Z,25.90
2022-11-26T03:57:12.360Z,24.80
2022-11-26T03:59:39.468Z,26.50
2022-11-26T04:02:06.875Z,24.97
2022-11-26T04:04:34.334Z,27.37
2022-11-26T04:07:01.573Z,30.27
2022-11-26T04:09:28.655Z,26.87
2022-11-26T04:11:55.844Z,33.63
2022-11-26T04:14:23.059Z,21.50
2022-11-26T04:16:50.259Z,30.00
2022-11-26T04:19:17.432Z,32.03
2022-11-26T04:21:44.585Z,27.80
2022-11-26T04:24:11.743Z,31.50
2022-11-26T04:26:38.900Z,33.27
2022-11-26T04:29:06.053Z,24.97
2022-11-26T04:31:33.185Z,28.97
2022-11-26T04:34:00.357Z,25.50
2022-11-26T04:36:27.458Z,26.83
2022-11-26T04:38:54.646Z,26.87
2022-11-26T04:41:21.760Z,23.27
2022-11-26T04:43:48.875Z,29.63
2022-11-26T04:46:16.069Z,25.67
2022-11-26T04:48:43.272Z,29.43
2022-11-26T04:51:10.375Z,32.70
2022-11-26T04:53:37.462Z,29.00
2022-11-26T04:56:04.652Z,27.83
2022-11-26T04:58:31.826Z,22.23
2022-11-26T05:00:58.996Z,33.20
2022-11-26T05:03:26.244Z,37.07
2022-11-26T05:05:53.412Z,32.00
2022-11-26T05:08:20.540Z,28.90
2022-11-26T05:10:47.635Z,30.53
2022-11-26T05:13:14.764Z,28.57
2022-11-26T05:15:41.872Z,27.00
2022-11-26T05:18:08.986Z,26.63
2022-11-26T05:20:36.084Z,28.40
2022-11-26T05:23:03.246Z,31.77
2022-11-26T05:25:30.343Z,30.30
2022-11-26T05:27:57.434Z,23.83
2022-11-26T05:30:24.590Z,31.23
2022-11-26T05:32:51.697Z,27.70
2022-11-26T05:35:18.892Z,29.97
2022-11-26T05:37:46.021Z,30.90
2022-11-26T05:40:13.312Z,28.87
2022-11-26T05:42:40.523Z,34.40
2022-11-26T05:45:07.824Z,31.90
2022-11-26T05:47:34.945Z,28.77
2022-11-26T05:50:02.034Z,36.77
2022-11-26T05:52:29.152Z,37.40
2022-11-26T05:54:56.250Z,38.47
2022-11-26T05:57:23.418Z,38.93
2022-11-26T05:59:50.571Z,37.33
2022-11-26T06:02:17.890Z,37.73
2022-11-26T06:04:45.130Z,35.30
2022-11-26T06:07:12.312Z,38.57
2022-11-26T06:09:39.742Z,39.43
2022-11-26T06:12:07.155Z,46.90
2022-11-26T06:14:34.335Z,46.80
2022-11-26T06:17:01.518Z,45.40
2022-11-26T06:19:28.749Z,34.87
2022-11-26T06:21:55.836Z,41.27
2022-11-26T06:24:23.047Z,39.50
2022-11-26T06:26:50.186Z,48.10
2022-11-26T06:29:17.615Z,37.53
2022-11-26T06:31:44.859Z,41.20
2022-11-26T06:34:12.101Z,38.90
2022-11-26T06:36:39.193Z,49.47
2022-11-26T06:39:06.293Z,39.60
2022-11-26T06:41:33.432Z,46.97
2022-11-26T06:44:00.571Z,44.87
2022-11-26T06:46:27.767Z,37.23
2022-11-26T06:48:54.942Z,45.33
2022-11-26T06:51:22.135Z,44.60
2022-11-26T06:53:49.774Z,36.77
2022-11-26T06:56:19.235Z,43.37
2022-11-26T06:58:47.574Z,40.40
2022-11-26T07:01:19.485Z,41.43
2022-11-26T07:03:46.858Z,37.47
2022-11-26T07:06:18.606Z,40.87
2022-11-26T07:08:45.967Z,36.37
2022-11-26T07:11:13.469Z,40.33
2022-11-26T07:13:40.592Z,41.10
2022-11-26T07:16:08.179Z,35.63
2022-11-26T07:18:35.605Z,40.13
2022-11-26T07:21:06.788Z,37.80
2022-11-26T07:23:34.002Z,32.23
2022-11-26T07:26:01.866Z,36.00
2022-11-26T07:28:29.539Z,44.63
2022-11-26T07:31:00.342Z,43.33
2022-11-26T07:33:27.486Z,43.43
2022-11-26T07:35:54.799Z,41.70
2022-11-26T07:38:23.053Z,33.83
2022-11-26T07:40:50.146Z,31.33
2022-11-26T07:43:17.253Z,36.80
2022-11-26T07:45:44.385Z,33.10
2022-11-26T07:48:16.575Z,24.97
2022-11-26T07:50:44.926Z,28.63
2022-11-26T07:53:12.920Z,29.60
2022-11-26T07:55:40.706Z,25.20
2022-11-26T07:58:07.828Z,30.27
2022-11-26T08:00:35.041Z,19.47
2022-11-26T08:03:02.207Z,26.77
2022-11-26T08:05:29.411Z,23.67
2022-11-26T08:07:56.569Z,20.00
2022-11-26T08:10:23.818Z,17.57
2022-11-26T08:12:52.017Z,20.93
2022-11-26T08:15:19.197Z,21.73
2022-11-26T08:17:46.317Z,19.43
2022-11-26T08:20:13.535Z,20.53
2022-11-26T08:22:40.713Z,23.43
2022-11-26T08:25:08.221Z,22.67
2022-11-26T08:27:35.398Z,19.10
2022-11-26T08:30:02.484Z,25.63
2022-11-26T08:32:29.586Z,18.27
2022-11-26T08:34:56.673Z,19.20
2022-11-26T08:37:23.804Z,20.77
2022-11-26T08:39:50.918Z,22.63
2022-11-26T08:42:18.154Z,25.27
2022-11-26T08:44:45.348Z,28.93
2022-11-26T08:47:12.459Z,22.47
2022-11-26T08:49:39.589Z,21.97
2022-11-26T08:52:06.749Z,25.43
2022-11-26T08:54:33.880Z,21.83
2022-11-26T08:57:01.007Z,17.57
2022-11-26T08:59:28.170Z,18.63
2022-11-26T09:01:55.325Z,18.33
2022-11-26T09:04:22.460Z,14.97
2022-11-26T09:06:49.641Z,20.23
2022-11-26T09:09:18.010Z,16.00
2022-11-26T09:12:03.177Z,13.30
2022-11-26T09:14:31.620Z,13.57
2022-11-26T09:16:59.130Z,16.10
2022-11-26T09:19:26.880Z,14.60
2022-11-26T09:21:53.984Z,14.13
2022-11-26T09:24:21.645Z,11.87
2022-11-26T09:26:48.927Z,12.03
2022-11-26T09:29:25.500Z,13.17
2022-11-26T09:32:22.059Z,12.83
2022-11-26T09:34:40.103Z,10.37
2022-11-26T09:37:07.883Z,10.63
2022-11-26T09:39:35.068Z,11.07
2022-11-26T09:42:07.002Z,11.20
2022-11-26T09:44:56.757Z,12.20
2022-11-26T09:47:26.000Z,9.77
2022-11-26T09:49:55.866Z,12.20
2022-11-26T09:52:24.963Z,14.20
2022-11-26T09:54:55.695Z,12.90
2022-11-26T09:57:31.104Z,13.10
2022-11-26T09:59:58.285Z,14.93
2022-11-26T10:02:26.811Z,12.93
2022-11-26T10:04:54.127Z,11.00
2022-11-26T10:07:39.414Z,14.20
2022-11-26T10:10:26.800Z,12.40
2022-11-26T10:13:19.108Z,12.47
2022-11-26T10:15:52.944Z,13.47
2022-11-26T10:18:33.738Z,13.90
2022-11-26T10:21:27.351Z,13.13
2022-11-26T10:24:05.041Z,13.93
2022-11-26T10:26:36.730Z,12.50
2022-11-26T10:29:18.987Z,13.27
2022-11-26T10:31:47.372Z,12.67
2022-11-26T10:34:19.180Z,14.43
2022-11-26T10:36:47.616Z,14.95
2022-11-26T10:39:16.103Z,12.27
2022-11-26T10:41:43.595Z,14.40
2022-11-26T10:44:29.364Z,12.53
2022-11-26T10:46:57.020Z,14.27
2022-11-26T10:49:25.860Z,13.30
2022-11-26T10:51:54.885Z,13.47
2022-11-26T10:54:24.791Z,14.93
2022-11-26T10:56:55.369Z,13.70
2022-11-26T10:59:30.745Z,14.87
2022-11-26T11:02:02.610Z,12.57
2022-11-26T11:04:35.600Z,13.27
2022-11-26T11:07:06.242Z,12.87
2022-11-26T11:09:38.581Z,13.03
2022-11-26T11:12:15.831Z,13.77
2022-11-26T11:14:46.477Z,14.73
2022-11-26T11:17:29.340Z,13.73
2022-11-26T11:20:01.791Z,14.40
2022-11-26T11:22:28.983Z,16.60
2022-11-26T11:24:57.190Z,14.50
2022-11-26T11:27:28.681Z,15.97
2022-11-26T11:30:00.910Z,14.70
2022-11-26T11:32:38.655Z,16.07
2022-11-26T11:35:13.276Z,14.30
2022-11-26T11:37:56.835Z,15.03
2022-11-26T11:40:27.383Z,18.70
2022-11-26T11:42:59.936Z,13.27
2022-11-26T11:45:36.880Z,14.17
2022-11-26T11:48:15.979Z,17.03
2022-11-26T11:50:45.777Z,15.33
2022-11-26T11:53:35.612Z,15.93
2022-11-26T11:56:03.046Z,16.37
2022-11-26T11:58:45.595Z,15.87
2022-11-26T12:01:31.547Z,16.33
2022-11-26T12:04:19.550Z,15.73
2022-11-26T12:06:53.159Z,13.77
2022-11-26T12:09:39.711Z,15.90
2022-11-26T12:12:24.108Z,15.13
2022-11-26T12:14:56.424Z,14.37
2022-11-26T12:17:33.186Z,14.27
2022-11-26T12:20:05.919Z,15.90
2022-11-26T12:22:39.351Z,17.70
2022-11-26T12:25:36.614Z,15.00
2022-11-26T12:28:07.318Z,20.45
2022-11-26T12:30:52.630Z,14.85
2022-11-26T12:33:26.677Z,15.67
2022-11-26T12:36:01.408Z,15.87
2022-11-26T12:38:36.947Z,15.37
2022-11-26T12:41:10.287Z,17.43
2022-11-26T12:43:40.139Z,14.23
2022-11-26T12:46:11.427Z,12.47
2022-11-26T12:48:43.780Z,18.27
2022-11-26T12:51:30.043Z,17.90
2022-11-26T12:54:15.775Z,15.03
2022-11-26T12:56:49.073Z,15.50
2022-11-26T12:59:19.027Z,18.67
2022-11-26T13:01:46.222Z,14.73
2022-11-26T13:07:08.617Z,20.43
2022-11-26T13:09:44.043Z,18.87
2022-11-26T13:12:29.695Z,18.33
2022-11-26T13:15:04.823Z,19.57
2022-11-26T13:17:38.504Z,16.67
2022-11-26T13:20:09.839Z,16.87
2022-11-26T13:22:50.829Z,20.97
2022-11-26T13:25:29.888Z,17.20
2022-11-26T13:28:17.602Z,16.53
2022-11-26T13:30:59.788Z,19.03
2022-11-26T13:33:39.020Z,18.40
2022-11-26T13:36:06.115Z,17.37
2022-11-26T13:38:53.465Z,16.93
2022-11-26T13:41:39.185Z,18.83
2022-11-26T13:44:07.063Z,18.33
2022-11-26T13:46:37.379Z,18.97
2022-11-26T13:49:23.403Z,16.30
2022-11-26T13:51:56.647Z,18.63
2022-11-26T13:54:29.277Z,18.87
2022-11-26T13:57:09.091Z,15.80
2022-11-26T13:59:36.807Z,15.40
2022-11-26T14:02:22.520Z,20.30
2022-11-26T14:04:49.688Z,19.47
2022-11-26T14:07:17.721Z,32.83
2022-11-26T14:09:44.915Z,35.77
2022-11-26T14:12:15.885Z,27.50
2022-11-26T14:14:43.684Z,33.83
2022-11-26T14:17:15.401Z,29.20
2022-11-26T14:19:42.668Z,38.47
2022-11-26T14:22:26.534Z,33.80
2022-11-26T14:24:54.778Z,34.87
2022-11-26T14:27:21.861Z,30.53
2022-11-26T14:29:54.092Z,32.83
2022-11-26T14:32:23.617Z,31.97
2022-11-26T14:34:52.753Z,37.80
2022-11-26T14:37:21.335Z,40.87
2022-11-26T14:40:00.697Z,45.43
2022-11-26T14:42:28.318Z,63.53
2022-11-26T14:45:05.854Z,43.57
2022-11-26T14:47:33.484Z,37.03
2022-11-26T14:50:06.739Z,48.20
2022-11-26T14:52:35.525Z,54.80
2022-11-26T14:55:14.121Z,66.00
2022-11-26T14:57:42.892Z,66.23
2022-11-26T15:00:12.824Z,53.37
2022-11-26T15:02:41.550Z,42.77
2022-11-26T15:05:16.548Z,45.57
2022-11-26T15:07:43.800Z,24.20
2022-11-26T15:10:21.365Z,19.33
2022-11-26T15:12:49.309Z,20.37
2022-11-26T15:15:23.855Z,19.40
2022-11-26T15:17:53.510Z,21.03
2022-11-26T15:20:21.066Z,24.53
2022-11-26T15:22:52.822Z,22.87
2022-11-26T15:25:23.022Z,23.03
2022-11-26T15:27:54.753Z,29.47
2022-11-26T15:30:23.778Z,25.57
2022-11-26T15:33:04.728Z,26.30
2022-11-26T15:35:33.307Z,25.10
2022-11-26T15:38:00.481Z,24.00
2022-11-26T15:40:32.303Z,27.37
2022-11-26T15:43:04.306Z,25.47
2022-11-26T15:45:39.846Z,22.80
2022-11-26T15:48:27.218Z,28.13
2022-11-26T15:50:58.104Z,22.37
2022-11-26T15:53:27.102Z,28.57
2022-11-26T15:55:54.443Z,25.80
2022-11-26T15:58:30.480Z,26.73
2022-11-26T16:00:59.771Z,29.30
2022-11-26T16:03:39.128Z,27.57
2022-11-26T16:06:08.472Z,34.97
2022-11-26T16:08:35.755Z,33.67
2022-11-26T16:11:08.373Z,25.33
2022-11-26T16:13:36.162Z,29.93
2022-11-26T16:16:08.971Z,26.23
2022-11-26T16:18:50.728Z,29.77
2022-11-26T16:21:21.734Z,30.63
2022-11-26T16:23:53.677Z,30.67
2022-11-26T16:26:20.833Z,31.73
2022-11-26T16:28:48.320Z,33.17
2022-11-26T16:31:16.037Z,26.60
2022-11-26T16:33:43.564Z,26.97
2022-11-26T16:36:21.326Z,32.37
2022-11-26T16:38:49.124Z,31.83
2022-11-26T16:41:17.336Z,31.93
2022-11-26T16:43:44.564Z,32.17
2022-11-26T16:46:16.653Z,29.57
2022-11-26T16:48:44.417Z,27.83
2022-11-26T16:51:11.615Z,37.57
2022-11-26T16:53:38.822Z,46.70
2022-11-26T16:56:06.732Z,40.83
2022-11-26T16:58:35.254Z,36.30
2022-11-26T17:01:02.781Z,32.77
2022-11-26T17:03:32.707Z,38.23
2022-11-26T17:06:02.173Z,38.00
2022-11-26T17:08:30.227Z,32.90
2022-11-26T17:10:57.817Z,35.17
2022-11-26T17:13:25.351Z,33.37
2022-11-26T17:15:52.553Z,34.50
2022-11-26T17:18:26.106Z,34.03
2022-11-26T17:20:54.249Z,30.07
2022-11-26T17:23:21.468Z,35.07
2022-11-26T17:25:52.736Z,29.63
2022-11-26T17:28:21.211Z,33.23
2022-11-26T17:30:48.375Z,31.97
2022-11-26T17:33:15.511Z,30.70
2022-11-26T17:35:42.760Z,30.50
2022-11-26T17:38:17.292Z,36.20
2022-11-26T17:40:45.162Z,33.53
2022-11-26T17:43:12.719Z,43.57
2022-11-26T17:45:40.123Z,33.93
2022-11-26T17:48:07.648Z,40.37
2022-11-26T17:50:36.296Z,41.70
2022-11-26T17:53:03.839Z,42.97
2022-11-26T17:55:31.438Z,49.87
2022-11-26T17:57:58.588Z,40.47
2022-11-26T18:00:30.672Z,43.30
2022-11-26T18:02:58.367Z,44.70
2022-11-26T18:05:25.649Z,39.67
2022-11-26T18:07:53.019Z,40.00
2022-11-26T18:10:21.205Z,44.40
2022-11-26T18:12:48.635Z,39.93
2022-11-26T18:15:20.076Z,45.97
2022-11-26T18:17:51.524Z,47.17
2022-11-26T18:20:20.037Z,46.57
2022-11-26T18:22:47.236Z,52.60
2022-11-26T18:25:14.769Z,42.67
2022-11-26T18:27:41.942Z,44.23
2022-11-26T18:30:09.340Z,41.97
2022-11-26T18:32:37.558Z,43.37
2022-11-26T18:35:05.681Z,40.53
2022-11-26T18:37:33.701Z,42.27
2022-11-26T18:40:01.043Z,43.87
2022-11-26T18:42:43.329Z,44.63
2022-11-26T18:45:11.777Z,51.20
2022-11-26T18:47:38.940Z,51.10
2022-11-26T18:50:06.764Z,49.70
2022-11-26T18:52:33.899Z,48.93
2022-11-26T18:55:04.586Z,50.90
2022-11-26T18:57:31.764Z,54.67
2022-11-26T18:59:59.063Z,55.40
2022-11-26T19:02:26.252Z,59.37
2022-11-26T19:04:53.605Z,58.67
2022-11-26T19:07:20.775Z,66.90
2022-11-26T19:09:48.842Z,63.00
2022-11-26T19:12:15.945Z,62.03
2022-11-26T19:14:43.063Z,72.03
2022-11-26T19:17:10.252Z,76.50
2022-11-26T19:19:38.428Z,74.20
2022-11-26T19:22:05.745Z,64.03
2022-11-26T19:24:32.866Z,66.33
2022-11-26T19:26:59.960Z,60.17
2022-11-26T19:29:27.069Z,61.97
2022-11-26T19:31:54.209Z,67.80
2022-11-26T19:34:21.343Z,70.17
2022-11-26T19:36:49.049Z,61.97
2022-11-26T19:39:16.815Z,68.03
2022-11-26T19:41:44.103Z,66.40
2022-11-26T19:44:11.243Z,64.53
2022-11-26T19:46:40.828Z,88.60
2022-11-26T19:49:08.768Z,81.43
2022-11-26T19:51:35.858Z,89.90
2022-11-26T19:54:03.281Z,88.27
2022-11-26T19:56:31.466Z,85.80
2022-11-26T19:59:00.511Z,82.63
2022-11-26T20:01:30.377Z,75.07
2022-11-26T20:03:58.819Z,77.77
2022-11-26T20:06:26.787Z,78.93
2022-11-26T20:08:54.301Z,76.23
2022-11-26T20:11:21.416Z,79.60
2022-11-26T20:13:49.464Z,80.47
2022-11-26T20:16:24.202Z,89.77
2022-11-26T20:18:51.693Z,81.97
2022-11-26T20:21:20.382Z,85.83
2022-11-26T20:23:48.000Z,88.23
2022-11-26T20:26:29.254Z,85.50
2022-11-26T20:28:57.229Z,78.83
2022-11-26T20:31:24.688Z,79.77
2022-11-26T20:33:52.861Z,84.03
2022-11-26T20:36:21.091Z,82.30
2022-11-26T20:38:48.626Z,80.90
2022-11-26T20:41:17.289Z,80.30
2022-11-26T20:43:44.929Z,79.37
2022-11-26T20:46:13.166Z,80.10
2022-11-26T20:48:41.228Z,86.03
2022-11-26T20:51:09.687Z,78.63
2022-11-26T20:53:37.375Z,88.13
2022-11-26T20:56:05.005Z,81.97
2022-11-26T20:58:32.546Z,91.57
2022-11-26T21:01:00.200Z,93.20
2022-11-26T21:03:28.368Z,95.00
2022-11-26T21:05:55.588Z,92.47
2022-11-26T21:08:23.563Z,94.70
2022-11-26T21:10:51.002Z,93.50
2022-11-26T21:13:19.039Z,96.63
2022-11-26T21:15:47.508Z,96.10
2022-11-26T21:18:14.977Z,91.47
2022-11-26T21:20:42.724Z,111.23
2022-11-26T21:23:10.605Z,88.43
2022-11-26T21:25:38.457Z,97.17
2022-11-26T21:28:06.298Z,97.13
2022-11-26T21:30:34.223Z,108.90
2022-11-26T21:33:07.379Z,111.30
2022-11-26T21:35:36.340Z,106.93
2022-11-26T21:38:03.691Z,106.57
2022-11-26T21:40:31.096Z,107.33
2022-11-26T21:42:58.419Z,106.67
2022-11-26T21:45:27.498Z,121.50
2022-11-26T21:47:54.671Z,111.27
2022-11-26T21:50:21.945Z,130.17
2022-11-26T21:52:49.107Z,117.80
2022-11-26T21:55:16.307Z,123.57
2022-11-26T21:57:43.398Z,136.33
2022-11-26T22:00:10.782Z,138.57
2022-11-26T22:02:38.073Z,138.53
2022-11-26T22:05:05.341Z,145.33
2022-11-26T22:07:32.531Z,141.60
2022-11-26T22:09:59.796Z,148.67
2022-11-26T22:12:26.964Z,165.00
2022-11-26T22:14:54.043Z,122.13
2022-11-26T22:17:21.245Z,134.90
2022-11-26T22:19:48.376Z,178.47
2022-11-26T22:22:15.524Z,223.77
2022-11-26T22:24:42.669Z,279.87
2022-11-26T22:27:09.865Z,347.73
2022-11-26T22:29:37.956Z,360.57
2022-11-26T22:32:05.437Z,305.20
2022-11-26T22:34:32.618Z,276.93
2022-11-26T22:36:59.804Z,258.73
2022-11-26T22:39:26.903Z,355.87
2022-11-26T22:41:54.035Z,229.30
2022-11-26T22:44:21.180Z,262.70
2022-11-26T22:46:48.303Z,300.73
2022-11-26T22:49:17.776Z,259.30
2022-11-26T22:51:45.194Z,306.80
2022-11-26T22:54:13.556Z,477.57
2022-11-26T22:56:40.688Z,222.27
2022-11-26T22:59:09.416Z,166.60
2022-11-26T23:01:37.376Z,139.80
2022-11-26T23:04:06.215Z,198.13
2022-11-26T23:06:34.316Z,157.13
2022-11-26T23:09:03.242Z,124.73
2022-11-26T23:11:31.310Z,100.23
2022-11-26T23:13:58.548Z,268.00
2022-11-26T23:16:26.964Z,225.17
2022-11-26T23:18:54.851Z,128.10
2022-11-26T23:21:23.580Z,150.63
2022-11-26T23:23:50.967Z,612.90
2022-11-26T23:26:25.025Z,425.70
2022-11-26T23:28:54.462Z,303.57
2022-11-26T23:31:23.215Z,295.53
2022-11-26T23:33:50.680Z,744.53
2022-11-26T23:36:18.108Z,330.30
2022-11-26T23:38:45.489Z,362.53
2022-11-26T23:41:12.814Z,382.73
2022-11-26T23:43:40.235Z,479.70
2022-11-26T23:46:09.000Z,366.87
2022-11-26T23:48:36.202Z,263.77
2022-11-26T23:51:07.056Z,388.57
2022-11-26T23:53:35.971Z,381.87
2022-11-26T23:56:04.173Z,312.43
2022-11-26T23:58:31.548Z,530.47
